Time;durP1;ratioP1;P1;durP2;ratioP2;P2;SDS_P1;SDS_P2;PMS_P1;PMS_P2;Temp;Humidity;BMP_temperature;BMP_pressure;BME280_temperature;BME280_humidity;BME280_pressure;Samples;Min_cycle;Max_cycle;Signal;HPM_P1;HPM_P2
2022/12/29 00:01:39;;;;;;;8.75;7.95;;;10.40;99.90;;;;;;5039073;28;20089;-70
2022/12/29 00:04:04;;;;;;;10.88;9.98;;;10.40;99.90;;;;;;5040177;28;20046;-69
2022/12/29 00:06:31;;;;;;;11.48;10.38;;;10.40;99.90;;;;;;5042408;28;20052;-70
2022/12/29 00:08:56;;;;;;;10.75;9.90;;;10.40;99.90;;;;;;5046465;28;20041;-69
2022/12/29 00:11:25;;;;;;;11.88;10.88;;;10.40;99.90;;;;;;5053549;28;20636;-69
2022/12/29 00:16:43;;;;;;;11.85;10.82;;;10.40;99.90;;;;;;5051407;28;20257;-69
2022/12/29 00:35:07;;;;;;;12.68;11.57;;;10.30;99.90;;;;;;5070589;28;20037;-69
2022/12/29 00:35:55;;;;;;;10.68;8.85;;;10.30;99.90;;;;;;5054694;28;20048;-71
2022/12/29 00:44:05;;;;;;;9.52;8.30;;;10.40;99.90;;;;;;5041700;28;20414;-70
2022/12/29 00:46:39;;;;;;;8.48;7.57;;;10.40;99.90;;;;;;5037216;28;20053;-70
2022/12/29 00:51:52;;;;;;;7.88;7.07;;;10.40;99.90;;;;;;5055488;28;20041;-70
2022/12/29 00:54:19;;;;;;;8.52;7.28;;;10.50;99.90;;;;;;5057954;28;20045;-70
2022/12/29 00:56:49;;;;;;;7.90;7.10;;;10.50;99.90;;;;;;5044743;28;20052;-70
2022/12/29 00:59:15;;;;;;;7.70;6.90;;;10.50;99.90;;;;;;5055298;28;20059;-70
2022/12/29 01:01:41;;;;;;;7.45;6.65;;;10.50;99.90;;;;;;5058417;28;20512;-70
2022/12/29 01:04:08;;;;;;;7.53;6.82;;;10.50;99.90;;;;;;5051127;28;20044;-69
2022/12/29 01:06:39;;;;;;;7.68;6.78;;;10.50;99.90;;;;;;5046967;28;20040;-70
2022/12/29 01:11:54;;;;;;;6.70;6.10;;;10.50;99.90;;;;;;5032452;28;19935;-71
2022/12/29 01:14:20;;;;;;;6.28;5.68;;;10.50;99.90;;;;;;5033149;28;20072;-70
2022/12/29 01:16:49;;;;;;;7.03;6.32;;;10.60;99.90;;;;;;5028918;28;20052;-69
2022/12/29 01:19:16;;;;;;;8.10;6.03;;;10.60;99.90;;;;;;5035284;28;21043;-72
2022/12/29 01:21:44;;;;;;;7.57;5.95;;;10.60;99.90;;;;;;5048057;28;20075;-69
2022/12/29 01:24:31;;;;;;;7.53;5.80;;;10.60;99.90;;;;;;5054974;28;20076;-69
2022/12/29 01:26:57;;;;;;;6.22;5.50;;;10.60;99.90;;;;;;5014168;28;20075;-69
2022/12/29 01:29:23;;;;;;;6.07;5.47;;;10.60;99.90;;;;;;5047390;28;20052;-71
2022/12/29 01:31:49;;;;;;;5.85;5.25;;;10.60;99.90;;;;;;5048446;28;20539;-70
2022/12/29 01:34:15;;;;;;;5.40;4.90;;;10.60;99.90;;;;;;5025464;28;20072;-70
2022/12/29 01:36:41;;;;;;;6.32;5.50;;;10.70;99.90;;;;;;5046464;28;20131;-70
2022/12/29 01:39:06;;;;;;;5.88;5.25;;;10.70;99.90;;;;;;5029830;28;20045;-70
2022/12/29 01:41:32;;;;;;;5.50;4.97;;;10.70;99.90;;;;;;5013038;28;20052;-70
2022/12/29 01:44:00;;;;;;;6.18;4.78;;;10.70;99.90;;;;;;5014941;28;20493;-70
2022/12/29 01:46:35;;;;;;;6.40;4.45;;;10.70;99.90;;;;;;5044471;28;20196;-71
2022/12/29 01:49:22;;;;;;;5.10;4.60;;;10.70;99.90;;;;;;5047671;28;20040;-70
2022/12/29 01:51:53;;;;;;;7.50;4.57;;;10.80;99.90;;;;;;5059124;28;20068;-70
2022/12/29 01:54:40;;;;;;;5.43;4.45;;;10.80;99.90;;;;;;5033939;28;20174;-70
2022/12/29 01:57:13;;;;;;;6.93;4.53;;;10.80;99.90;;;;;;5048763;28;20043;-70
2022/12/29 01:59:52;;;;;;;4.85;4.35;;;10.80;99.90;;;;;;5049410;28;20567;-70
2022/12/29 02:02:21;;;;;;;6.18;3.88;;;10.90;99.90;;;;;;5060580;28;20064;-70
2022/12/29 02:04:47;;;;;;;6.43;4.53;;;10.90;99.90;;;;;;5030730;28;20135;-70
2022/12/29 02:07:22;;;;;;;5.68;4.70;;;10.90;99.90;;;;;;5029677;28;20127;-70
2022/12/29 02:09:54;;;;;;;6.05;4.10;;;10.90;99.90;;;;;;5045724;28;20103;-70
2022/12/29 02:12:22;;;;;;;5.93;4.53;;;10.90;99.90;;;;;;5057014;28;20334;-70
2022/12/29 02:14:51;;;;;;;6.32;4.55;;;10.90;99.90;;;;;;5045463;28;20049;-70
2022/12/29 02:17:17;;;;;;;4.75;4.00;;;10.90;99.90;;;;;;5029993;28;20124;-70
2022/12/29 02:19:52;;;;;;;6.00;4.50;;;10.90;99.90;;;;;;5051355;28;20517;-71
2022/12/29 02:22:43;;;;;;;4.82;3.67;;;10.90;99.90;;;;;;5044557;28;20685;-70
2022/12/29 02:25:39;;;;;;;4.93;3.85;;;11.00;99.90;;;;;;5048365;28;20231;-70
2022/12/29 02:28:29;;;;;;;5.63;3.58;;;10.90;99.90;;;;;;5048855;28;20178;-70
2022/12/29 02:31:28;;;;;;;5.45;3.92;;;10.90;99.90;;;;;;5049290;28;20072;-79
2022/12/29 02:34:10;;;;;;;4.57;3.72;;;11.00;99.90;;;;;;5007202;28;20523;-78
2022/12/29 02:36:46;;;;;;;6.88;3.78;;;11.00;99.90;;;;;;5049804;28;20143;-79
2022/12/29 02:39:32;;;;;;;5.05;3.97;;;11.00;99.90;;;;;;5048265;28;20045;-79
2022/12/29 02:42:29;;;;;;;5.22;3.80;;;11.00;99.90;;;;;;5048093;28;20040;-78
2022/12/29 02:45:20;;;;;;;4.53;3.25;;;10.90;99.90;;;;;;5043880;28;20519;-79
2022/12/29 02:48:18;;;;;;;5.95;3.45;;;10.80;99.90;;;;;;5045370;28;20053;-78
2022/12/29 02:51:13;;;;;;;5.22;3.10;;;10.90;99.90;;;;;;4997471;28;20055;-78
2022/12/29 02:56:30;;;;;;;5.35;3.50;;;10.90;99.90;;;;;;5039314;28;20812;-79
2022/12/29 02:58:56;;;;;;;4.72;3.15;;;10.90;99.90;;;;;;5012619;28;20040;-79
2022/12/29 03:02:16;;;;;;;5.32;3.33;;;10.80;99.90;;;;;;5005649;28;20053;-77
2022/12/29 03:05:04;;;;;;;4.22;2.63;;;10.80;99.90;;;;;;5063575;28;20052;-78
2022/12/29 03:07:33;;;;;;;3.20;2.25;;;10.90;99.90;;;;;;5026888;28;20052;-77
2022/12/29 03:10:37;;;;;;;3.15;2.40;;;10.90;99.90;;;;;;5049028;28;20047;-77
2022/12/29 03:16:28;;;;;;;3.17;2.20;;;10.90;99.90;;;;;;5045744;28;20040;-76
2022/12/29 03:19:32;;;;;;;3.22;2.33;;;10.90;99.90;;;;;;5045896;28;20041;-77
2022/12/29 03:25:17;;;;;;;4.30;1.98;;;10.80;99.90;;;;;;5048827;28;20036;-76
2022/12/29 03:27:52;;;;;;;3.55;2.00;;;10.80;99.90;;;;;;5048675;28;20238;-77
2022/12/29 03:30:19;;;;;;;3.38;2.10;;;10.80;99.90;;;;;;5049226;28;20394;-77
2022/12/29 03:32:58;;;;;;;4.20;2.33;;;10.80;99.90;;;;;;5063333;28;20044;-77
2022/12/29 03:35:27;;;;;;;4.05;2.30;;;10.80;99.90;;;;;;5045132;28;20504;-76
2022/12/29 03:38:00;;;;;;;3.57;2.10;;;10.80;99.90;;;;;;5047263;28;20051;-76
2022/12/29 03:40:28;;;;;;;3.42;2.10;;;10.80;99.90;;;;;;5048610;28;20882;-78
2022/12/29 03:42:55;;;;;;;3.40;2.03;;;10.80;99.90;;;;;;5050883;28;21401;-77
2022/12/29 03:45:22;;;;;;;3.78;1.80;;;10.80;99.90;;;;;;5030624;28;20111;-77
2022/12/29 03:47:48;;;;;;;5.10;2.00;;;10.80;99.90;;;;;;5038519;28;20061;-77
2022/12/29 03:50:14;;;;;;;3.88;1.90;;;10.80;99.90;;;;;;5027504;28;20466;-76
2022/12/29 03:52:39;;;;;;;3.78;2.00;;;10.80;99.90;;;;;;5047994;28;20049;-77
2022/12/29 03:55:05;;;;;;;3.17;1.70;;;10.80;99.90;;;;;;5024885;28;20810;-78
2022/12/29 03:57:31;;;;;;;4.40;1.90;;;10.80;99.90;;;;;;5054809;28;20044;-77
2022/12/29 03:59:57;;;;;;;5.43;2.13;;;10.80;99.90;;;;;;5054982;28;20503;-77
2022/12/29 04:02:23;;;;;;;5.00;2.08;;;10.90;99.90;;;;;;5041599;28;20458;-78
2022/12/29 04:04:49;;;;;;;3.42;1.75;;;10.90;99.90;;;;;;5024648;28;20048;-77
2022/12/29 04:07:15;;;;;;;4.40;1.63;;;10.80;99.90;;;;;;5024890;28;20047;-78
2022/12/29 04:09:41;;;;;;;5.95;2.15;;;10.80;99.90;;;;;;5053016;28;20233;-77
2022/12/29 04:12:06;;;;;;;2.35;1.23;;;10.70;99.90;;;;;;5054860;28;20120;-77
2022/12/29 04:14:32;;;;;;;3.20;1.30;;;10.80;99.90;;;;;;5054882;28;20036;-78
2022/12/29 04:16:58;;;;;;;4.45;1.20;;;10.70;99.90;;;;;;5038260;28;20500;-78
2022/12/29 04:19:23;;;;;;;2.95;1.00;;;10.70;99.90;;;;;;5040825;28;20045;-78
2022/12/29 04:21:49;;;;;;;5.25;1.50;;;10.70;99.90;;;;;;5039695;28;20044;-77
2022/12/29 04:24:15;;;;;;;5.00;1.67;;;10.60;99.90;;;;;;5052338;28;20523;-77
2022/12/29 04:26:41;;;;;;;5.13;1.20;;;10.60;99.90;;;;;;5038391;28;20121;-77
2022/12/29 04:29:07;;;;;;;4.82;1.70;;;10.50;99.90;;;;;;5035472;28;20059;-78
2022/12/29 04:31:33;;;;;;;5.35;1.08;;;10.40;99.90;;;;;;5033224;28;20072;-78
2022/12/29 04:33:59;;;;;;;4.30;1.20;;;10.40;99.90;;;;;;5051151;28;20052;-78
2022/12/29 04:36:26;;;;;;;2.40;0.70;;;10.30;99.90;;;;;;5060549;28;20530;-78
2022/12/29 04:38:55;;;;;;;3.13;1.05;;;10.30;99.90;;;;;;5040159;28;20128;-79
2022/12/29 04:41:20;;;;;;;4.82;1.33;;;10.20;99.90;;;;;;5022703;28;20403;-78
2022/12/29 04:43:46;;;;;;;4.53;1.50;;;10.20;99.90;;;;;;5029529;28;20106;-78
2022/12/29 04:46:12;;;;;;;3.38;1.30;;;10.10;99.90;;;;;;5048835;28;20049;-77
2022/12/29 04:48:38;;;;;;;3.92;1.63;;;10.10;99.90;;;;;;5046185;28;20075;-78
2022/12/29 04:51:04;;;;;;;4.97;1.60;;;10.00;99.90;;;;;;5034996;28;20141;-78
2022/12/29 04:53:30;;;;;;;5.40;1.85;;;10.00;99.90;;;;;;5040263;28;20053;-78
2022/12/29 04:55:56;;;;;;;5.78;1.85;;;10.10;99.90;;;;;;5053020;28;20423;-79
2022/12/29 04:58:22;;;;;;;5.38;1.52;;;10.00;99.90;;;;;;5026017;28;20102;-76
2022/12/29 05:00:47;;;;;;;5.00;1.35;;;10.10;99.90;;;;;;5038289;28;20055;-77
2022/12/29 05:03:13;;;;;;;7.93;1.90;;;10.10;99.90;;;;;;5038495;28;20406;-78
2022/12/29 05:05:39;;;;;;;8.50;1.90;;;10.10;99.90;;;;;;5021384;28;20514;-78
2022/12/29 05:08:05;;;;;;;8.50;1.70;;;10.10;99.90;;;;;;5055278;28;20040;-77
2022/12/29 05:10:31;;;;;;;5.90;1.50;;;10.20;99.90;;;;;;5037353;28;20786;-78
2022/12/29 05:12:58;;;;;;;8.15;1.73;;;10.20;99.90;;;;;;5023925;28;20037;-77
2022/12/29 05:15:23;;;;;;;9.43;1.77;;;10.20;99.90;;;;;;5020694;28;20048;-78
2022/12/29 05:17:49;;;;;;;10.75;2.08;;;10.20;99.90;;;;;;5037061;28;20329;-77
2022/12/29 05:20:15;;;;;;;7.85;1.70;;;10.20;99.90;;;;;;5051899;28;20171;-78
2022/12/29 05:22:41;;;;;;;8.05;2.45;;;10.10;99.90;;;;;;5057383;28;20097;-78
2022/12/29 05:25:07;;;;;;;8.48;1.90;;;10.10;99.90;;;;;;5041332;28;20040;-79
2022/12/29 05:27:33;;;;;;;11.20;2.85;;;10.10;99.90;;;;;;5055268;28;20055;-78
2022/12/29 05:29:59;;;;;;;7.82;1.85;;;10.10;99.90;;;;;;5021186;28;20041;-78
2022/12/29 05:32:24;;;;;;;9.27;2.20;;;10.00;99.90;;;;;;5041853;28;20064;-78
2022/12/29 05:34:50;;;;;;;8.63;1.73;;;10.10;99.90;;;;;;5058465;28;20101;-78
2022/12/29 05:37:16;;;;;;;8.98;1.88;;;10.00;99.90;;;;;;5048277;28;20040;-77
2022/12/29 05:39:45;;;;;;;7.30;1.65;;;10.00;99.90;;;;;;5042386;28;20041;-69
2022/12/29 05:42:11;;;;;;;6.93;1.35;;;10.00;99.90;;;;;;5069541;28;20494;-70
2022/12/29 05:44:37;;;;;;;8.82;1.67;;;10.00;99.90;;;;;;5043890;28;20053;-69
2022/12/29 05:47:02;;;;;;;7.03;1.38;;;10.00;99.90;;;;;;5062915;28;20113;-70
2022/12/29 05:49:28;;;;;;;7.95;1.73;;;10.00;99.90;;;;;;5040925;28;20093;-69
2022/12/29 05:51:54;;;;;;;8.82;1.85;;;10.00;99.90;;;;;;5047645;28;20402;-70
2022/12/29 05:54:20;;;;;;;7.95;1.52;;;10.00;99.90;;;;;;5059359;28;20084;-69
2022/12/29 05:56:45;;;;;;;6.15;1.20;;;9.90;99.90;;;;;;5028048;28;20576;-70
2022/12/29 05:59:11;;;;;;;6.78;1.50;;;9.90;99.90;;;;;;5034461;28;20041;-70
2022/12/29 06:01:37;;;;;;;5.05;1.40;;;9.90;99.90;;;;;;5039586;28;20508;-70
2022/12/29 06:04:03;;;;;;;6.28;1.35;;;9.90;99.90;;;;;;5057188;28;20070;-69
2022/12/29 06:06:29;;;;;;;5.53;1.58;;;9.90;99.90;;;;;;5058558;28;20068;-77
2022/12/29 06:08:54;;;;;;;7.28;1.50;;;10.00;99.90;;;;;;5023232;28;20098;-78
2022/12/29 06:11:20;;;;;;;5.65;1.60;;;10.00;99.90;;;;;;5046313;28;20045;-78
2022/12/29 06:13:46;;;;;;;6.10;1.90;;;10.00;99.90;;;;;;5050894;28;20492;-77
2022/12/29 06:16:12;;;;;;;7.88;1.73;;;10.00;99.90;;;;;;5029405;28;20719;-78
2022/12/29 06:18:38;;;;;;;7.45;1.90;;;10.00;99.90;;;;;;5060679;28;20135;-77
2022/12/29 06:21:05;;;;;;;6.65;1.58;;;10.00;99.90;;;;;;5049534;28;20318;-77
2022/12/29 06:23:31;;;;;;;8.73;2.15;;;10.00;99.90;;;;;;5072897;28;20036;-78
2022/12/29 06:25:57;;;;;;;8.57;1.75;;;10.00;99.90;;;;;;5045626;28;20086;-78
2022/12/29 06:28:23;;;;;;;9.05;2.05;;;10.00;99.90;;;;;;5059808;28;20113;-77
2022/12/29 06:30:49;;;;;;;10.30;2.03;;;10.00;99.90;;;;;;5039257;28;20135;-78
2022/12/29 06:33:15;;;;;;;10.02;1.77;;;10.00;99.90;;;;;;5045615;28;20044;-78
2022/12/29 06:35:45;;;;;;;10.60;1.95;;;10.00;99.90;;;;;;5038641;28;20055;-69
2022/12/29 06:38:11;;;;;;;7.38;2.20;;;10.00;99.90;;;;;;5029689;28;20142;-70
2022/12/29 06:40:37;;;;;;;12.30;2.13;;;10.00;99.90;;;;;;5064422;28;20430;-70
2022/12/29 06:43:03;;;;;;;8.05;1.70;;;10.00;99.90;;;;;;5059609;28;20079;-70
2022/12/29 06:45:28;;;;;;;7.70;1.95;;;10.00;99.90;;;;;;5066175;28;20045;-70
2022/12/29 06:47:54;;;;;;;8.90;2.10;;;10.00;99.90;;;;;;5031659;28;20640;-70
2022/12/29 06:50:20;;;;;;;7.38;1.65;;;10.00;99.90;;;;;;5045872;28;20041;-69
2022/12/29 06:52:46;;;;;;;9.38;2.30;;;10.00;99.90;;;;;;5042435;28;20457;-69
2022/12/29 06:55:11;;;;;;;9.63;1.95;;;10.00;99.90;;;;;;5050582;28;20075;-71
2022/12/29 06:57:37;;;;;;;9.13;1.90;;;10.00;99.90;;;;;;5053038;28;20051;-68
2022/12/29 07:00:04;;;;;;;9.55;1.88;;;10.00;99.90;;;;;;5054062;28;20476;-68
2022/12/29 07:02:30;;;;;;;9.35;2.35;;;10.00;99.90;;;;;;5051624;28;20122;-69
2022/12/29 07:04:56;;;;;;;8.88;1.92;;;10.00;99.90;;;;;;5060239;28;20487;-69
2022/12/29 07:07:22;;;;;;;7.40;1.92;;;10.00;99.90;;;;;;5044177;28;20056;-69
2022/12/29 07:09:48;;;;;;;8.75;1.95;;;10.00;99.90;;;;;;5073039;28;20041;-70
2022/12/29 07:12:14;;;;;;;10.15;1.80;;;10.00;99.90;;;;;;5046443;28;20041;-70
2022/12/29 07:14:41;;;;;;;8.52;2.05;;;10.00;99.90;;;;;;5075798;28;20075;-69
2022/12/29 07:17:07;;;;;;;9.85;2.05;;;10.00;99.90;;;;;;5037891;28;20036;-69
2022/12/29 07:19:33;;;;;;;9.82;2.05;;;10.00;99.90;;;;;;5044893;28;20146;-69
2022/12/29 07:21:59;;;;;;;9.55;2.25;;;10.00;99.90;;;;;;5077184;28;20075;-70
2022/12/29 07:24:25;;;;;;;9.30;2.65;;;9.90;99.90;;;;;;5059445;28;20072;-69
2022/12/29 07:26:51;;;;;;;13.10;2.85;;;9.90;99.90;;;;;;5022650;28;20491;-70
2022/12/29 07:29:17;;;;;;;12.55;2.70;;;10.00;99.90;;;;;;5058819;28;20055;-70
2022/12/29 07:31:43;;;;;;;14.48;3.15;;;10.00;99.90;;;;;;5039701;28;20048;-69
2022/12/29 07:34:09;;;;;;;13.25;2.42;;;10.00;99.90;;;;;;5034622;28;20049;-70
2022/12/29 07:36:35;;;;;;;10.63;2.72;;;10.00;99.90;;;;;;5052443;28;20135;-69
2022/12/29 07:39:05;;;;;;;11.02;2.50;;;10.00;99.90;;;;;;5066079;28;20570;-69
2022/12/29 07:41:31;;;;;;;;;;;10.00;99.90;;;;;;5055062;28;20541;-69
2022/12/29 07:43:57;;;;;;;10.32;2.30;;;10.00;99.90;;;;;;5048734;28;19956;-69
2022/12/29 07:46:23;;;;;;;11.73;2.35;;;10.00;99.90;;;;;;5053809;28;20048;-69
2022/12/29 07:48:48;;;;;;;11.90;2.38;;;10.00;99.90;;;;;;5062498;28;20071;-69
2022/12/29 07:51:14;;;;;;;12.18;2.58;;;10.00;99.90;;;;;;5059792;28;20512;-69
2022/12/29 07:53:40;;;;;;;12.57;2.60;;;10.00;99.90;;;;;;5045956;28;20056;-70
2022/12/29 07:56:06;;;;;;;13.05;2.70;;;9.90;99.90;;;;;;5041889;28;20479;-69
2022/12/29 07:58:32;;;;;;;10.73;1.90;;;9.90;99.90;;;;;;5056410;28;20040;-69
2022/12/29 08:00:57;;;;;;;13.05;2.92;;;9.90;99.90;;;;;;5039621;28;20102;-77
2022/12/29 08:03:25;;;;;;;13.02;2.58;;;9.90;99.90;;;;;;5036742;28;20044;-75
2022/12/29 08:05:51;;;;;;;16.10;2.72;;;9.90;99.90;;;;;;5040410;28;20032;-77
2022/12/29 08:08:17;;;;;;;11.13;2.83;;;9.90;99.90;;;;;;5055681;28;20095;-77
2022/12/29 08:10:43;;;;;;;13.85;2.30;;;9.90;99.90;;;;;;5051542;28;20056;-78
2022/12/29 08:13:09;;;;;;;11.38;2.58;;;9.90;99.90;;;;;;5033782;28;20090;-77
2022/12/29 08:15:36;;;;;;;14.77;3.13;;;9.90;99.90;;;;;;5050132;28;20056;-78
2022/12/29 08:18:03;;;;;;;14.07;2.90;;;10.00;99.90;;;;;;5051700;28;20049;-77
2022/12/29 08:20:29;;;;;;;11.70;2.88;;;10.00;99.90;;;;;;5038230;28;20457;-78
2022/12/29 08:22:55;;;;;;;15.45;3.15;;;10.00;99.90;;;;;;5033641;28;20041;-77
2022/12/29 08:25:21;;;;;;;14.65;3.80;;;9.90;99.90;;;;;;5041072;28;20044;-76
2022/12/29 08:27:46;;;;;;;10.90;2.88;;;10.00;99.90;;;;;;5051457;28;20049;-78
2022/12/29 08:30:16;;;;;;;14.25;3.35;;;9.90;99.90;;;;;;5028163;28;20048;-77
2022/12/29 08:32:42;;;;;;;12.13;3.05;;;10.00;99.90;;;;;;5051321;28;20319;-78
2022/12/29 08:35:08;;;;;;;12.90;2.95;;;10.00;99.90;;;;;;5041429;28;20033;-77
2022/12/29 08:37:34;;;;;;;13.77;2.70;;;10.00;99.90;;;;;;5059348;28;20242;-77
2022/12/29 08:40:03;;;;;;;15.25;3.42;;;10.00;99.90;;;;;;5060813;28;20499;-77
2022/12/29 08:42:30;;;;;;;17.00;3.28;;;10.00;99.90;;;;;;5038542;28;20056;-78
2022/12/29 08:45:00;;;;;;;13.52;2.85;;;10.00;99.90;;;;;;5064381;28;20049;-76
2022/12/29 08:47:26;;;;;;;14.23;3.92;;;10.00;99.90;;;;;;5059901;28;20045;-76
2022/12/29 08:49:55;;;;;;;15.20;3.97;;;10.00;99.90;;;;;;5069914;28;20399;-76
2022/12/29 08:52:21;;;;;;;19.35;3.40;;;10.00;99.90;;;;;;5053062;28;20055;-75
2022/12/29 08:54:47;;;;;;;11.43;3.28;;;10.00;99.90;;;;;;5038131;28;20585;-75
2022/12/29 08:57:13;;;;;;;11.20;2.80;;;10.10;99.90;;;;;;5051878;28;20157;-76
2022/12/29 08:59:38;;;;;;;17.40;3.78;;;10.10;99.90;;;;;;5057601;28;20063;-78
2022/12/29 09:02:04;;;;;;;14.35;3.28;;;10.10;99.90;;;;;;5044491;28;20233;-78
2022/12/29 09:04:30;;;;;;;10.98;2.75;;;10.20;99.90;;;;;;5049645;28;20414;-76
2022/12/29 09:06:56;;;;;;;14.07;2.83;;;10.10;99.90;;;;;;5055080;28;20052;-77
2022/12/29 09:09:22;;;;;;;13.75;3.42;;;10.10;99.90;;;;;;5047517;28;20123;-75
2022/12/29 09:11:47;;;;;;;11.75;2.85;;;10.10;99.90;;;;;;5053678;28;20036;-76
2022/12/29 09:14:14;;;;;;;15.20;3.00;;;10.10;99.90;;;;;;5057570;28;20091;-77
2022/12/29 09:19:24;;;;;;;13.95;3.13;;;10.00;99.90;;;;;;5050371;28;20048;-77
2022/12/29 09:51:31;;;;;;;11.30;3.55;;;10.00;99.90;;;;;;5699926;22;20287;-73
2022/12/29 09:54:43;;;;;;;13.90;3.10;;;10.00;99.90;;;;;;4951076;28;20053;-73
2022/12/29 09:57:27;;;;;;;15.05;3.50;;;10.00;99.90;;;;;;4936136;28;20131;-73
2022/12/29 10:00:03;;;;;;;16.30;2.80;;;9.90;99.90;;;;;;4958079;28;20539;-73
2022/12/29 10:02:42;;;;;;;13.65;2.95;;;9.80;99.90;;;;;;4979111;28;20050;-73
2022/12/29 10:05:32;;;;;;;14.05;2.45;;;9.70;99.90;;;;;;4977535;28;20066;-75
2022/12/29 10:08:19;;;;;;;13.82;3.45;;;9.60;99.90;;;;;;4966733;28;20050;-73
2022/12/29 10:10:54;;;;;;;13.85;3.03;;;9.50;99.90;;;;;;4978684;28;20532;-73
2022/12/29 10:13:42;;;;;;;16.48;3.42;;;9.60;99.90;;;;;;4963207;28;20204;-73
2022/12/29 10:16:33;;;;;;;14.25;3.05;;;9.50;99.90;;;;;;4988519;28;20076;-74
2022/12/29 10:19:23;;;;;;;16.00;3.13;;;9.40;99.90;;;;;;4984051;28;20077;-74
2022/12/29 10:22:28;;;;;;;14.13;2.92;;;9.30;99.90;;;;;;4984181;28;20038;-75
2022/12/29 10:25:03;;;;;;;17.35;4.10;;;9.30;99.90;;;;;;4984286;28;20061;-73
2022/12/29 10:27:32;;;;;;;14.88;3.42;;;9.30;99.90;;;;;;4956215;28;20061;-73
2022/12/29 10:30:01;;;;;;;13.85;2.90;;;9.20;99.90;;;;;;4987820;28;20085;-73
2022/12/29 10:32:43;;;;;;;17.92;3.70;;;9.20;99.90;;;;;;4989468;28;20041;-73
2022/12/29 10:35:19;;;;;;;13.27;3.15;;;9.20;99.90;;;;;;4969775;28;20128;-74
2022/12/29 10:38:24;;;;;;;13.40;2.92;;;9.20;99.90;;;;;;4963406;28;20108;-75
2022/12/29 10:41:25;;;;;;;11.35;2.72;;;9.20;99.90;;;;;;4949714;28;20054;-75
2022/12/29 10:43:54;;;;;;;10.40;2.80;;;9.20;99.90;;;;;;4973674;28;20054;-75
2022/12/29 10:46:24;;;;;;;11.77;2.97;;;9.20;99.90;;;;;;4970696;28;20562;-75
2022/12/29 10:48:50;;;;;;;12.63;2.90;;;9.30;99.90;;;;;;4972723;28;20108;-75
2022/12/29 10:51:46;;;;;;;13.80;3.72;;;9.30;99.90;;;;;;4967346;28;20041;-74
2022/12/29 10:54:27;;;;;;;13.32;3.45;;;9.30;99.90;;;;;;4973500;28;20050;-75
2022/12/29 10:57:00;;;;;;;;;;;9.30;99.90;;;;;;4974189;28;20057;-75
2022/12/29 10:59:31;;;;;;;11.18;3.03;;;9.20;99.90;;;;;;4966992;28;19925;-74
2022/12/29 11:02:09;;;;;;;11.65;3.03;;;9.20;99.90;;;;;;4968727;28;20519;-75
2022/12/29 11:04:43;;;;;;;13.80;3.13;;;9.20;99.90;;;;;;4980134;28;20056;-75
2022/12/29 11:07:10;;;;;;;8.70;2.60;;;9.20;99.90;;;;;;4984125;28;20523;-74
2022/12/29 11:09:39;;;;;;;10.95;3.20;;;9.20;99.90;;;;;;4979483;28;20407;-74
2022/12/29 11:12:34;;;;;;;15.07;3.47;;;9.20;99.90;;;;;;4987201;28;20065;-75
2022/12/29 11:15:36;;;;;;;12.75;3.03;;;9.20;99.90;;;;;;4980905;28;20050;-74
2022/12/29 11:18:20;;;;;;;12.50;2.85;;;9.30;99.90;;;;;;4962185;28;20572;-75
2022/12/29 11:20:47;;;;;;;15.05;3.45;;;9.20;99.90;;;;;;4965964;28;20539;-76
2022/12/29 11:23:39;;;;;;;16.75;3.92;;;9.30;99.90;;;;;;4950969;28;20551;-77
2022/12/29 11:26:41;;;;;;;14.57;3.55;;;9.40;99.90;;;;;;4960611;28;20054;-75
2022/12/29 11:29:49;;;;;;;16.23;3.60;;;9.40;99.90;;;;;;4953286;28;20307;-78
2022/12/29 11:32:51;;;;;;;13.55;3.67;;;9.50;99.90;;;;;;4957509;28;20054;-77
2022/12/29 11:35:31;;;;;;;13.30;3.35;;;9.50;99.90;;;;;;4910221;28;20085;-74
2022/12/29 11:37:58;;;;;;;13.23;3.72;;;9.60;99.90;;;;;;4970457;28;20042;-76
2022/12/29 11:41:05;;;;;;;15.18;3.70;;;9.60;99.90;;;;;;4954031;28;20046;-74
2022/12/29 11:43:34;;;;;;;13.38;3.63;;;9.50;99.90;;;;;;4962830;28;20125;-76
2022/12/29 11:46:33;;;;;;;15.15;3.63;;;9.50;99.90;;;;;;4967166;28;20054;-76
2022/12/29 11:49:00;;;;;;;17.98;3.88;;;9.50;99.90;;;;;;4973687;28;20205;-74
2022/12/29 11:51:37;;;;;;;15.70;3.70;;;9.40;99.90;;;;;;4973740;28;20066;-76
2022/12/29 11:54:04;;;;;;;16.50;4.22;;;9.40;99.90;;;;;;4969825;28;20459;-75
2022/12/29 11:56:37;;;;;;;18.63;4.07;;;9.40;99.90;;;;;;4957942;28;20070;-75
2022/12/29 11:59:24;;;;;;;18.15;4.60;;;9.40;99.90;;;;;;4963405;28;20042;-74
2022/12/29 12:01:50;;;;;;;16.30;4.07;;;9.30;99.90;;;;;;4975408;28;20491;-74
2022/12/29 12:04:22;;;;;;;16.35;4.03;;;9.30;99.90;;;;;;4958252;28;20049;-76
2022/12/29 12:07:07;;;;;;;18.65;3.80;;;9.40;99.90;;;;;;4954031;28;20574;-75
2022/12/29 12:09:44;;;;;;;20.30;4.78;;;9.40;99.90;;;;;;4960190;28;20038;-74
2022/12/29 12:12:34;;;;;;;20.30;4.40;;;9.50;99.90;;;;;;4963898;28;20052;-72
2022/12/29 12:15:02;;;;;;;18.38;4.30;;;9.60;99.90;;;;;;4974152;28;20049;-73
2022/12/29 12:17:38;;;;;;;16.73;4.18;;;9.70;99.90;;;;;;4969416;28;20463;-72
2022/12/29 12:20:33;;;;;;;17.60;4.22;;;9.80;99.90;;;;;;4966182;28;20056;-73
2022/12/29 12:23:25;;;;;;;19.35;4.00;;;9.90;99.90;;;;;;4976727;28;20060;-73
2022/12/29 12:26:15;;;;;;;16.63;3.42;;;10.00;99.90;;;;;;4980146;28;20095;-72
2022/12/29 12:29:28;;;;;;;19.27;4.22;;;10.00;99.90;;;;;;4956873;28;20089;-72
2022/12/29 12:32:02;;;;;;;21.17;4.18;;;10.00;99.90;;;;;;4861803;29;20059;-72
2022/12/29 12:34:35;;;;;;;17.83;4.03;;;10.00;99.90;;;;;;4887541;29;20056;-76
2022/12/29 12:37:38;;;;;;;15.95;3.70;;;9.90;99.90;;;;;;4957531;28;20156;-76
2022/12/29 12:40:35;;;;;;;19.67;4.38;;;9.80;99.90;;;;;;4975675;28;20457;-76
2022/12/29 12:43:19;;;;;;;17.75;4.45;;;9.70;99.90;;;;;;4977817;28;20046;-75
2022/12/29 12:45:51;;;;;;;19.13;4.03;;;9.60;99.90;;;;;;4975531;28;20050;-76
2022/12/29 12:48:39;;;;;;;20.55;4.88;;;9.60;99.90;;;;;;4962448;28;20472;-76
2022/12/29 12:51:23;;;;;;;22.65;4.88;;;9.60;99.90;;;;;;4974626;28;20153;-75
2022/12/29 12:53:49;;;;;;;19.65;4.43;;;9.60;99.90;;;;;;4968390;28;20123;-76
2022/12/29 12:56:34;;;;;;;23.33;4.38;;;9.60;99.90;;;;;;4982940;28;20503;-75
2022/12/29 12:59:00;;;;;;;20.10;4.85;;;9.60;99.90;;;;;;4975223;28;20107;-77
2022/12/29 13:02:01;;;;;;;22.25;4.13;;;9.60;99.90;;;;;;4976480;28;20552;-77
2022/12/29 13:04:49;;;;;;;20.77;5.63;;;9.60;99.90;;;;;;4944281;28;20092;-75
2022/12/29 13:07:33;;;;;;;26.05;5.28;;;9.60;99.90;;;;;;4974171;28;20653;-76
2022/12/29 13:10:24;;;;;;;20.98;4.68;;;9.60;99.90;;;;;;4971977;28;20039;-75
2022/12/29 13:13:19;;;;;;;25.20;4.32;;;9.60;99.90;;;;;;4975721;28;20050;-77
2022/12/29 13:16:00;;;;;;;21.20;3.63;;;9.60;99.90;;;;;;4957891;28;20042;-76
2022/12/29 13:18:47;;;;;;;16.77;4.13;;;9.70;99.90;;;;;;4980113;28;20053;-75
2022/12/29 13:21:54;;;;;;;18.20;3.22;;;9.70;99.90;;;;;;4964737;28;20045;-76
2022/12/29 13:24:49;;;;;;;15.50;3.38;;;9.80;99.90;;;;;;4957266;28;20073;-75
2022/12/29 13:27:20;;;;;;;13.68;2.83;;;9.70;99.90;;;;;;4923365;28;20363;-77
2022/12/29 13:29:53;;;;;;;12.02;3.05;;;9.70;99.90;;;;;;4969183;28;20045;-77
2022/12/29 13:32:38;;;;;;;14.77;2.88;;;9.70;99.90;;;;;;4961695;28;20119;-75
2022/12/29 13:35:23;;;;;;;13.18;2.95;;;9.70;99.90;;;;;;4968387;28;20325;-75
2022/12/29 13:38:04;;;;;;;12.25;3.15;;;9.60;99.90;;;;;;4978467;28;20046;-75
2022/12/29 13:40:38;;;;;;;14.52;2.90;;;9.60;99.90;;;;;;4952613;28;20046;-75
2022/12/29 13:43:09;;;;;;;12.13;3.30;;;9.50;99.90;;;;;;4964325;28;20041;-76
2022/12/29 13:45:39;;;;;;;16.27;3.33;;;9.50;99.90;;;;;;4962381;28;20049;-75
2022/12/29 13:48:19;;;;;;;14.68;3.92;;;9.50;99.90;;;;;;4956728;28;20547;-72
2022/12/29 13:50:56;;;;;;;13.90;3.08;;;9.60;99.90;;;;;;4959221;28;20056;-71
2022/12/29 13:53:57;;;;;;;14.35;3.22;;;9.60;99.90;;;;;;4964713;28;20089;-72
2022/12/29 13:56:31;;;;;;;;;;;9.50;99.90;;;;;;4972880;28;20048;-72
2022/12/29 13:59:23;;;;;;;16.77;3.20;;;9.50;99.90;;;;;;4977386;28;19921;-72
2022/12/29 14:02:02;;;;;;;13.75;2.88;;;9.40;99.90;;;;;;4952855;28;20511;-72
2022/12/29 14:04:32;;;;;;;15.77;3.15;;;9.50;99.90;;;;;;4957462;28;20046;-76
2022/12/29 14:07:12;;;;;;;14.13;2.72;;;9.40;99.90;;;;;;4969469;28;20037;-75
2022/12/29 14:09:56;;;;;;;17.27;3.40;;;9.40;99.90;;;;;;4973249;28;20531;-75
2022/12/29 14:12:43;;;;;;;14.38;2.92;;;9.40;99.90;;;;;;4972125;28;20069;-76
2022/12/29 14:15:09;;;;;;;19.95;3.70;;;9.30;99.90;;;;;;4970747;28;20053;-75
2022/12/29 14:17:35;;;;;;;12.00;2.88;;;9.30;99.90;;;;;;4968419;28;20042;-76
2022/12/29 14:20:02;;;;;;;12.02;2.53;;;9.30;99.90;;;;;;4959114;28;20444;-75
2022/12/29 14:22:29;;;;;;;12.13;2.58;;;9.20;99.90;;;;;;4935011;28;20249;-74
2022/12/29 14:24:55;;;;;;;12.43;2.40;;;9.20;99.90;;;;;;4974378;28;20034;-76
2022/12/29 14:27:21;;;;;;;11.55;2.60;;;9.20;99.90;;;;;;4964756;28;20278;-75